createdAt,value
2018-05-11T00:00:04.388Z,81.2
2018-05-11T00:01:03.808Z,81.2
2018-05-11T00:02:03.122Z,81.1
2018-05-11T00:02:33.651Z,81.1
2018-05-11T00:03:03.882Z,81.5
2018-05-11T00:04:01.588Z,81.6
2018-05-11T00:05:00.917Z,81.1
2018-05-11T00:07:58.629Z,81
2018-05-11T00:08:57.835Z,81
2018-05-11T00:09:57.255Z,81.3
2018-05-11T00:10:56.245Z,81
2018-05-11T00:11:55.560Z,81.1
2018-05-11T00:12:54.883Z,80.8
2018-05-11T00:13:54.322Z,80.9
2018-05-11T00:14:53.313Z,81.1
2018-05-11T00:15:52.739Z,81.2
2018-05-11T00:16:52.168Z,81
2018-05-11T00:17:51.091Z,81.2
2018-05-11T00:18:50.525Z,81.3
2018-05-11T00:19:49.520Z,81.5
2018-05-11T00:20:48.832Z,81.3
2018-05-11T00:21:48.442Z,80.8
2018-05-11T00:22:47.440Z,80.6
2018-05-11T00:23:46.767Z,80.5
2018-05-11T00:25:45.394Z,80.4
2018-05-11T00:26:44.435Z,80.7
2018-05-11T00:27:43.757Z,80.9
2018-05-11T00:28:43.187Z,81
2018-05-11T00:29:42.507Z,81.1
2018-05-11T00:30:41.726Z,80.3
2018-05-11T00:31:40.649Z,80.9
2018-05-11T00:32:40.079Z,80.6
2018-05-11T00:33:39.393Z,81
2018-05-11T00:34:38.497Z,81.2
2018-05-11T00:35:37.813Z,81.1
2018-05-11T00:36:37.132Z,81.1
2018-05-11T00:37:36.452Z,80.9
2018-05-11T00:38:35.390Z,80.6
2018-05-11T00:39:34.702Z,80.5
2018-05-11T00:40:33.815Z,80.8
2018-05-11T00:41:33.133Z,81
2018-05-11T00:42:32.241Z,80.9
2018-05-11T00:43:31.562Z,81.2
2018-05-11T00:44:30.877Z,81.5
2018-05-11T00:45:30.483Z,80.9
2018-05-11T00:46:29.697Z,81
2018-05-11T00:47:29.017Z,81.1
2018-05-11T00:48:28.176Z,81.2
2018-05-11T00:49:27.167Z,80.9
2018-05-11T00:50:26.490Z,81.2
2018-05-11T00:51:25.816Z,80.9
2018-05-11T00:52:25.154Z,81.3
2018-05-11T00:53:24.493Z,80.7
2018-05-11T00:54:23.820Z,80.1
2018-05-11T00:55:23.030Z,80.5
2018-05-11T00:56:22.240Z,80.4
2018-05-11T00:57:21.450Z,79.7
2018-05-11T00:58:20.775Z,80.2
2018-05-11T00:59:19.996Z,79.7
2018-05-11T01:00:19.211Z,80.1
2018-05-11T01:01:18.535Z,80.2
2018-05-11T01:02:17.777Z,79.5
2018-05-11T01:03:16.596Z,79.7
2018-05-11T01:05:15.194Z,80
2018-05-11T01:06:14.909Z,79.8
2018-05-11T01:07:13.898Z,80
2018-05-11T01:10:11.602Z,79.6
2018-05-11T01:10:42.131Z,79.6
2018-05-11T01:11:12.659Z,79.8
2018-05-11T01:11:43.180Z,79.8
2018-05-11T01:12:13.810Z,79.7
2018-05-11T01:12:44.048Z,79.7
2018-05-11T01:14:08.645Z,80.3
2018-05-11T01:15:07.877Z,80
2018-05-11T01:16:07.103Z,79.2
2018-05-11T01:17:06.423Z,79.7
2018-05-11T01:18:05.845Z,79.6
2018-05-11T01:19:05.063Z,79.3
2018-05-11T01:20:04.275Z,78.3
2018-05-11T01:21:03.607Z,77.6
2018-05-11T01:21:34.128Z,77.6
2018-05-11T01:22:04.649Z,78
2018-05-11T01:22:35.293Z,78
2018-05-11T01:23:05.817Z,77
2018-05-11T01:23:36.333Z,77
2018-05-11T01:25:00.424Z,77.2
2018-05-11T01:25:59.855Z,77.3
2018-05-11T01:26:58.674Z,77.3
2018-05-11T01:27:57.987Z,76.9
2018-05-11T01:28:57.092Z,76.9
2018-05-11T01:29:56.420Z,77
2018-05-11T01:30:56.136Z,77.4
2018-05-11T01:31:54.954Z,77.7
2018-05-11T01:32:54.364Z,77.5
2018-05-11T01:33:24.772Z,77.5
2018-05-11T01:33:55.425Z,77.7
2018-05-11T01:34:25.551Z,77.7
2018-05-11T01:34:56.103Z,77.3
2018-05-11T01:35:26.729Z,77.3
2018-05-11T01:35:57.352Z,77.4
2018-05-11T01:36:51.133Z,77.4
2018-05-11T01:37:50.561Z,77.5
2018-05-11T01:38:49.676Z,77.7
2018-05-11T01:39:49.233Z,77.7
2018-05-11T01:40:48.478Z,78.3
2018-05-11T01:41:47.572Z,77.8
2018-05-11T01:42:46.784Z,78
2018-05-11T01:43:46.097Z,78.1
2018-05-11T01:44:45.306Z,78.3
2018-05-11T01:45:44.730Z,78.5
2018-05-11T01:46:43.552Z,78.6
2018-05-11T01:47:42.867Z,78.4
2018-05-11T01:48:42.187Z,78.9
2018-05-11T01:49:41.602Z,78.8
2018-05-11T01:50:40.520Z,78.8
2018-05-11T01:51:39.728Z,79
2018-05-11T01:52:39.158Z,79.3
2018-05-11T01:53:09.679Z,79.3
2018-05-11T01:54:37.460Z,79.1
2018-05-11T01:55:36.774Z,78.8
2018-05-11T01:56:36.099Z,79.2
2018-05-11T01:58:34.811Z,79.2
2018-05-11T01:59:33.621Z,79.3
2018-05-11T02:00:33.228Z,79.4
2018-05-11T02:01:32.439Z,79.3
2018-05-11T02:03:30.648Z,79.2
2018-05-11T02:04:01.281Z,79.2
2018-05-11T02:04:31.694Z,79.3
2018-05-11T02:05:02.235Z,79.3
2018-05-11T02:05:32.769Z,79.5
2018-05-11T02:06:28.678Z,79.4
2018-05-11T02:07:27.512Z,79.5
2018-05-11T02:08:26.945Z,79.3
2018-05-11T02:09:26.287Z,79.3
2018-05-11T02:10:25.395Z,79
2018-05-11T02:11:24.592Z,79
2018-05-11T02:12:23.908Z,79.1
2018-05-11T02:13:23.120Z,79.3
2018-05-11T02:14:22.326Z,79.4
2018-05-11T02:14:52.848Z,79.4
2018-05-11T02:15:23.267Z,79.4
2018-05-11T02:16:21.078Z,79.3
2018-05-11T02:17:20.184Z,79.4
2018-05-11T02:18:19.499Z,79
2018-05-11T02:19:18.411Z,79.3
2018-05-11T02:20:17.624Z,79.3
2018-05-11T02:21:16.947Z,78.8
2018-05-11T02:22:16.446Z,79.1
2018-05-11T02:23:15.744Z,79.3
2018-05-11T02:24:14.666Z,79.3
2018-05-11T02:25:14.100Z,79.1
2018-05-11T02:26:12.919Z,78.9
2018-05-11T02:27:12.239Z,79.1
2018-05-11T02:29:10.947Z,79.2
2018-05-11T02:30:10.263Z,79.5
2018-05-11T02:31:09.099Z,79.4
2018-05-11T02:32:08.445Z,79.7
2018-05-11T02:33:07.771Z,79.7
2018-05-11T02:34:07.217Z,79.5
2018-05-11T02:35:05.942Z,79.5
2018-05-11T02:36:05.556Z,79.8
2018-05-11T02:37:04.878Z,80
2018-05-11T02:38:03.597Z,79.8
2018-05-11T02:39:02.929Z,80
2018-05-11T02:40:02.048Z,80
2018-05-11T02:41:01.782Z,79.7
2018-05-11T02:42:00.769Z,79.9
2018-05-11T02:42:59.993Z,79.6
2018-05-11T02:44:58.711Z,80.1
2018-05-11T02:45:57.933Z,79.9
2018-05-11T02:46:56.762Z,79.8
2018-05-11T02:47:56.203Z,80.1
2018-05-11T02:48:55.530Z,80.3
2018-05-11T02:49:54.742Z,80.2
2018-05-11T02:51:53.062Z,80.3
2018-05-11T02:54:50.661Z,80.5
2018-05-11T02:55:50.080Z,80.4
2018-05-11T02:56:49.302Z,80.1
2018-05-11T02:57:48.582Z,80.3
2018-05-11T02:58:47.641Z,80.4
2018-05-11T02:59:18.289Z,80.4
2018-05-11T02:59:48.940Z,80.2
2018-05-11T03:00:19.588Z,80.2
2018-05-11T03:02:44.482Z,80.4
2018-05-11T03:04:43.296Z,80.5
2018-05-11T03:05:42.124Z,80.3
2018-05-11T03:06:41.350Z,80.5
2018-05-11T03:07:40.794Z,80.4
2018-05-11T03:08:39.724Z,80.3
2018-05-11T03:09:09.982Z,80.3
2018-05-11T03:09:40.520Z,80.3
2018-05-11T03:10:11.291Z,80.3
2018-05-11T03:10:41.943Z,80.3
2018-05-11T03:11:12.480Z,80.3
2018-05-11T03:12:36.608Z,80
2018-05-11T03:13:35.829Z,80.1
2018-05-11T03:14:35.183Z,80.2
2018-05-11T03:15:34.523Z,80.2
2018-05-11T03:16:33.762Z,80.4
2018-05-11T03:17:32.999Z,80.5
2018-05-11T03:18:32.644Z,80.3
2018-05-11T03:19:31.496Z,80.1
2018-05-11T03:20:30.426Z,80.2
2018-05-11T03:21:29.636Z,79.7
2018-05-11T03:22:29.063Z,79.8
2018-05-11T03:23:28.487Z,80
2018-05-11T03:24:27.315Z,80
2018-05-11T03:25:26.644Z,80.4
2018-05-11T03:26:25.856Z,80.1
2018-05-11T03:27:25.181Z,80
2018-05-11T03:28:24.499Z,80.1
2018-05-11T03:28:54.737Z,80.1
2018-05-11T03:29:25.370Z,80.3
2018-05-11T03:29:55.673Z,80.3
2018-05-11T03:30:26.319Z,80.2
2018-05-11T03:30:56.737Z,80.2
2018-05-11T03:31:27.281Z,80.2
2018-05-11T03:32:21.376Z,79.9
2018-05-11T03:33:20.695Z,80.1
2018-05-11T03:34:19.927Z,80.3
2018-05-11T03:35:18.859Z,80
2018-05-11T03:37:17.467Z,80.1
2018-05-11T03:39:16.134Z,79.9
2018-05-11T03:39:46.446Z,79.9
2018-05-11T03:40:16.979Z,80.1
2018-05-11T03:40:47.360Z,80.1
2018-05-11T03:41:18.010Z,80
2018-05-11T03:41:48.651Z,80
2018-05-11T03:42:18.795Z,80
2018-05-11T03:42:49.548Z,80
2018-05-11T03:44:12.106Z,80.1
2018-05-11T03:45:11.186Z,80
2018-05-11T03:46:10.613Z,79.9
2018-05-11T03:47:09.825Z,79.9
2018-05-11T03:48:08.650Z,79.7
2018-05-11T03:49:08.265Z,79.8
2018-05-11T03:50:07.198Z,79.8
2018-05-11T03:50:37.731Z,79.8
2018-05-11T03:51:08.474Z,79.7
2018-05-11T03:51:38.888Z,79.7
2018-05-11T03:52:09.641Z,79.8
2018-05-11T03:52:39.887Z,79.8
2018-05-11T03:54:04.393Z,79.4
2018-05-11T03:55:03.105Z,79.6
2018-05-11T03:56:02.322Z,79.7
2018-05-11T03:57:01.937Z,80
2018-05-11T03:58:01.161Z,80.1
2018-05-11T03:59:00.279Z,80.2
2018-05-11T04:00:58.494Z,79.7
2018-05-11T04:01:57.709Z,79.7
2018-05-11T04:02:57.040Z,79.8
2018-05-11T04:03:56.471Z,79.7
2018-05-11T04:04:55.296Z,79.6
2018-05-11T04:05:54.622Z,79.7
2018-05-11T04:06:53.943Z,79.8
2018-05-11T04:07:53.264Z,79.7
2018-05-11T04:08:52.200Z,79.7
2018-05-11T04:09:51.421Z,79.7
2018-05-11T04:10:50.625Z,79.8
2018-05-11T04:11:49.833Z,79.1
2018-05-11T04:13:48.436Z,79.6
2018-05-11T04:14:47.653Z,79.6
2018-05-11T04:15:47.082Z,79.5
2018-05-11T04:16:46.010Z,79.6
2018-05-11T04:17:45.234Z,79.6
2018-05-11T04:18:44.664Z,79.6
2018-05-11T04:19:43.985Z,79.7
2018-05-11T04:20:42.694Z,79.5
2018-05-11T04:21:42.352Z,79.7
2018-05-11T04:22:12.569Z,79.7
2018-05-11T04:22:42.714Z,79.8
2018-05-11T04:23:13.029Z,79.8
2018-05-11T04:23:43.665Z,79.5
2018-05-11T04:24:39.862Z,79.5
2018-05-11T04:25:39.352Z,79.5
2018-05-11T04:26:38.285Z,79.6
2018-05-11T04:27:37.716Z,79.4
2018-05-11T04:28:36.655Z,79.5
2018-05-11T04:29:35.975Z,79.3
2018-05-11T04:30:35.190Z,79.6
2018-05-11T04:31:34.293Z,79.7
2018-05-11T04:32:33.399Z,79.7
2018-05-11T04:33:32.721Z,79.6
2018-05-11T04:34:32.049Z,79.7
2018-05-11T04:35:31.487Z,80
2018-05-11T04:36:30.219Z,79.5
2018-05-11T04:37:29.435Z,79.7
2018-05-11T04:38:28.653Z,79.8
2018-05-11T04:39:27.979Z,79.8
2018-05-11T04:40:27.300Z,79.3
2018-05-11T04:41:26.518Z,79.4
2018-05-11T04:42:25.845Z,79.6
2018-05-11T04:43:24.791Z,79.4
2018-05-11T04:44:24.130Z,79.7
2018-05-11T04:45:23.730Z,79.8
2018-05-11T04:46:22.481Z,79.8
2018-05-11T04:47:21.704Z,79.5
2018-05-11T04:49:20.097Z,79.5
2018-05-11T04:50:19.321Z,79.5
2018-05-11T04:51:18.537Z,79.4
2018-05-11T04:52:17.862Z,79.6
2018-05-11T04:53:17.191Z,79.5
2018-05-11T04:55:15.297Z,80
2018-05-11T04:56:14.723Z,79.4
2018-05-11T04:57:13.719Z,79.2
2018-05-11T04:58:13.028Z,79.6
2018-05-11T04:59:12.357Z,79.6
2018-05-11T05:00:11.590Z,79.6
2018-05-11T05:01:10.807Z,79.6
2018-05-11T05:02:10.018Z,79.4
2018-05-11T05:03:09.465Z,79.8
2018-05-11T05:04:08.389Z,79.5
2018-05-11T05:05:07.598Z,79.1
2018-05-11T05:06:06.926Z,79.1
2018-05-11T05:07:06.052Z,79.2
2018-05-11T05:08:05.379Z,79.2
2018-05-11T05:09:04.488Z,79.4
2018-05-11T05:10:03.804Z,79.3
2018-05-11T05:11:03.132Z,79.3
2018-05-11T05:12:02.365Z,79.2
2018-05-11T05:13:01.588Z,79.4
2018-05-11T05:14:00.810Z,79.3
2018-05-11T05:15:00.138Z,79.3
2018-05-11T05:15:58.856Z,79.4
2018-05-11T05:16:58.068Z,79.3
2018-05-11T05:17:28.613Z,79.3
2018-05-11T05:17:59.139Z,79.4
2018-05-11T05:18:56.849Z,79.4
2018-05-11T05:19:55.898Z,79.4
2018-05-11T05:20:55.005Z,79.6
2018-05-11T05:21:54.239Z,79.5
2018-05-11T05:22:53.565Z,79.6
2018-05-11T05:24:52.179Z,78.8
2018-05-11T05:25:51.302Z,79.3
2018-05-11T05:26:50.423Z,79.3
2018-05-11T05:27:20.674Z,79.3
2018-05-11T05:27:50.877Z,79.4
2018-05-11T05:28:21.300Z,79.4
2018-05-11T05:28:51.613Z,78.9
2018-05-11T05:29:48.306Z,79.1
2018-05-11T05:30:47.636Z,79.3
2018-05-11T05:31:46.643Z,79.6
2018-05-11T05:32:45.974Z,79.3
2018-05-11T05:33:44.897Z,79.2
2018-05-11T05:34:44.123Z,79.5
2018-05-11T05:35:43.353Z,78.9
2018-05-11T05:36:42.789Z,79.1
2018-05-11T05:37:42.115Z,79.1
2018-05-11T05:38:41.047Z,79.3
2018-05-11T05:39:40.284Z,78.8
2018-05-11T05:40:39.505Z,79.2
2018-05-11T05:41:38.751Z,79.3
2018-05-11T05:42:38.190Z,79.3
2018-05-11T05:43:37.172Z,79.3
2018-05-11T05:44:36.490Z,79.4
2018-05-11T05:45:35.823Z,79.5
2018-05-11T05:46:34.744Z,79.4
2018-05-11T05:47:34.069Z,79.7
2018-05-11T05:48:33.391Z,79.5
2018-05-11T05:49:32.721Z,79.3
2018-05-11T05:50:31.940Z,79.4
2018-05-11T05:51:30.769Z,79.3
2018-05-11T05:52:30.111Z,79.3
2018-05-11T05:53:29.444Z,79.2
2018-05-11T05:54:28.546Z,79.3
2018-05-11T05:55:27.877Z,79.7
2018-05-11T05:56:27.205Z,79.8
2018-05-11T05:57:26.527Z,79.7
2018-05-11T05:58:25.561Z,79.5
2018-05-11T05:58:55.954Z,79.5
2018-05-11T05:59:26.610Z,79.5
2018-05-11T05:59:57.329Z,79.5
2018-05-11T06:01:23.380Z,79.8
2018-05-11T06:02:22.659Z,79.7
2018-05-11T06:03:21.870Z,79.7
2018-05-11T06:05:19.970Z,79.8
2018-05-11T06:06:19.189Z,79.7
2018-05-11T06:07:18.407Z,79.8
2018-05-11T06:08:17.813Z,79.5
2018-05-11T06:09:16.817Z,79.7
2018-05-11T06:09:47.565Z,79.7
2018-05-11T06:10:18.200Z,79.6
2018-05-11T06:11:15.414Z,79.5
2018-05-11T06:12:14.747Z,79.6
2018-05-11T06:13:14.175Z,79.8
2018-05-11T06:14:13.389Z,79.7
2018-05-11T06:15:12.209Z,79.7
2018-05-11T06:16:11.534Z,79.7
2018-05-11T06:17:10.968Z,79.4
2018-05-11T06:18:09.904Z,79.3
2018-05-11T06:19:09.229Z,79.4
2018-05-11T06:20:08.457Z,79.3
2018-05-11T06:20:38.830Z,79.3
2018-05-11T06:21:09.362Z,79.4
2018-05-11T06:22:07.468Z,78.9
2018-05-11T06:23:06.081Z,79.1
2018-05-11T06:24:05.523Z,79.1
2018-05-11T06:25:04.528Z,79.3
2018-05-11T06:25:35.292Z,79.3
2018-05-11T06:26:05.425Z,79.3
2018-05-11T06:27:03.139Z,79.2
2018-05-11T06:28:02.355Z,79.1
2018-05-11T06:29:01.362Z,79
2018-05-11T06:30:00.770Z,79
2018-05-11T06:31:00.233Z,78.7
2018-05-11T06:31:59.176Z,78.8
2018-05-11T06:32:58.514Z,78.5
2018-05-11T06:33:57.854Z,78.7
2018-05-11T06:34:56.763Z,78.7
2018-05-11T06:35:56.087Z,78.9
2018-05-11T06:36:26.338Z,78.9
2018-05-11T06:36:56.984Z,78.8
2018-05-11T06:37:54.686Z,78.9
2018-05-11T06:38:53.991Z,78.9
2018-05-11T06:39:52.835Z,78.8
2018-05-11T06:41:51.659Z,79.3
2018-05-11T06:42:50.484Z,79.1
2018-05-11T06:43:49.816Z,79.3
2018-05-11T06:44:49.055Z,79.3
2018-05-11T06:45:48.370Z,79.1
2018-05-11T06:46:47.377Z,79.4
2018-05-11T06:47:46.697Z,79.4
2018-05-11T06:48:45.919Z,79.3
2018-05-11T06:50:44.531Z,79.3
2018-05-11T06:51:43.851Z,79.5
2018-05-11T06:52:42.976Z,79
2018-05-11T06:53:42.412Z,79.1
2018-05-11T06:54:41.342Z,78.7
2018-05-11T06:55:40.567Z,79.1
2018-05-11T06:56:39.904Z,78.9
2018-05-11T06:57:39.119Z,78.6
2018-05-11T06:58:38.440Z,78.7
2018-05-11T06:59:37.766Z,78.6
2018-05-11T07:00:36.595Z,78.8
2018-05-11T07:01:35.948Z,78.6
2018-05-11T07:02:35.137Z,79.2
2018-05-11T07:03:34.565Z,78.7
2018-05-11T07:04:33.795Z,78.5
2018-05-11T07:05:33.009Z,79
2018-05-11T07:06:31.940Z,78.9
2018-05-11T07:07:31.168Z,79
2018-05-11T07:08:01.648Z,79
2018-05-11T07:09:30.042Z,78.9
2018-05-11T07:10:28.964Z,78.9
2018-05-11T07:11:28.171Z,79.6
2018-05-11T07:12:27.596Z,78.9
2018-05-11T07:13:26.916Z,78.6
2018-05-11T07:14:26.154Z,78.3
2018-05-11T07:15:25.505Z,78.5
2018-05-11T07:16:24.439Z,78.8
2018-05-11T07:17:23.761Z,78.1
2018-05-11T07:18:22.971Z,78.2
2018-05-11T07:18:53.721Z,78.2
2018-05-11T07:20:21.242Z,78.5
2018-05-11T07:21:20.464Z,78.7
2018-05-11T07:22:19.904Z,78.4
2018-05-11T07:23:19.012Z,78.2
2018-05-11T07:24:18.231Z,78.3
2018-05-11T07:25:17.565Z,78.2
2018-05-11T07:26:16.893Z,78.3
2018-05-11T07:27:16.218Z,78
2018-05-11T07:28:15.432Z,78
2018-05-11T07:29:14.363Z,78.2
2018-05-11T07:29:45.001Z,78.2
2018-05-11T07:31:13.125Z,78
2018-05-11T07:32:12.233Z,78.2
2018-05-11T07:33:11.571Z,78.1
2018-05-11T07:34:10.905Z,78.2
2018-05-11T07:35:09.618Z,78
2018-05-11T07:36:09.054Z,77.9
2018-05-11T07:37:08.568Z,78
2018-05-11T07:38:07.779Z,77.8
2018-05-11T07:39:07.108Z,78.2
2018-05-11T07:40:05.928Z,78.3
2018-05-11T07:41:05.282Z,77.9
2018-05-11T07:42:04.392Z,77.3
2018-05-11T07:43:04.335Z,77.7
2018-05-11T07:44:02.964Z,77.8
2018-05-11T07:45:02.182Z,77.7
2018-05-11T07:46:01.626Z,77.7
2018-05-11T07:47:00.471Z,78.1
2018-05-11T07:47:59.928Z,78
2018-05-11T07:48:59.273Z,77.7
2018-05-11T07:49:58.590Z,78
2018-05-11T07:50:57.662Z,78.3
2018-05-11T07:51:56.664Z,77.8
2018-05-11T07:52:56.504Z,78
2018-05-11T07:53:55.319Z,78
2018-05-11T07:54:54.646Z,78.1
2018-05-11T07:55:53.976Z,78
2018-05-11T07:56:53.201Z,78.6
2018-05-11T07:57:52.645Z,77.7
2018-05-11T07:58:51.471Z,78.9
2018-05-11T07:59:50.899Z,78.1
2018-05-11T08:00:50.404Z,78.1
2018-05-11T08:01:49.138Z,77.7
2018-05-11T08:02:48.870Z,77.4
2018-05-11T08:03:47.697Z,77.8
2018-05-11T08:04:47.126Z,77.9
2018-05-11T08:05:46.458Z,77.6
2018-05-11T08:06:45.687Z,77.8
2018-05-11T08:07:45.040Z,77.7
2018-05-11T08:08:44.367Z,77.5
2018-05-11T08:09:43.295Z,77.7
2018-05-11T08:10:42.529Z,78.4
2018-05-11T08:11:41.956Z,78.5
2018-05-11T08:12:41.361Z,78.7
2018-05-11T08:14:39.457Z,78.2
2018-05-11T08:16:38.274Z,78.5
2018-05-11T08:17:37.209Z,78.1
2018-05-11T08:18:36.538Z,77.3
2018-05-11T08:19:35.752Z,77.6
2018-05-11T08:20:34.863Z,78.1
2018-05-11T08:21:34.183Z,78.4
2018-05-11T08:22:33.416Z,78.2
2018-05-11T08:23:32.918Z,78
2018-05-11T08:24:32.240Z,78.2
2018-05-11T08:25:02.786Z,78.2
2018-05-11T08:25:33.213Z,77.7
2018-05-11T08:26:30.661Z,77.6
2018-05-11T08:27:29.810Z,78.1
2018-05-11T08:28:29.142Z,77.7
2018-05-11T08:29:28.351Z,77.7
2018-05-11T08:30:27.574Z,77.6
2018-05-11T08:31:26.616Z,77.9
2018-05-11T08:32:25.856Z,77.4
2018-05-11T08:33:25.177Z,77.5
2018-05-11T08:34:24.500Z,77.1
2018-05-11T08:35:23.725Z,77.4
2018-05-11T08:36:23.164Z,76.5
2018-05-11T08:37:22.169Z,77.4
2018-05-11T08:38:21.404Z,77.3
2018-05-11T08:39:20.527Z,77.5
2018-05-11T08:40:19.959Z,76.8
2018-05-11T08:41:19.283Z,77.4
2018-05-11T08:42:18.725Z,77.2
2018-05-11T08:43:18.044Z,77.1
2018-05-11T08:43:48.680Z,77.1
2018-05-11T08:44:18.831Z,76.9
2018-05-11T08:44:49.360Z,76.9
2018-05-11T08:46:15.450Z,77.6
2018-05-11T08:47:15.061Z,77.4
2018-05-11T08:48:14.185Z,77.3
2018-05-11T08:49:13.514Z,77
2018-05-11T08:50:12.241Z,77.1
2018-05-11T08:51:11.962Z,76.5
2018-05-11T08:52:11.292Z,76.8
2018-05-11T08:53:10.117Z,77
2018-05-11T08:53:40.762Z,77
2018-05-11T08:54:10.996Z,77.5
2018-05-11T08:54:41.630Z,77.5
2018-05-11T08:55:12.271Z,76.6
2018-05-11T08:55:42.524Z,76.6
2018-05-11T08:57:07.558Z,77.4
2018-05-11T08:57:37.844Z,77.4
2018-05-11T08:59:05.760Z,76.8
2018-05-11T09:00:05.093Z,76.6
2018-05-11T09:01:04.528Z,76
2018-05-11T09:02:03.855Z,75.9
2018-05-11T09:03:02.870Z,76
2018-05-11T09:04:01.865Z,76.4
2018-05-11T09:05:01.088Z,75.9
2018-05-11T09:05:31.524Z,75.9
2018-05-11T09:06:02.052Z,75.7
2018-05-11T09:06:32.728Z,75.7
2018-05-11T09:07:03.260Z,74.9
2018-05-11T09:07:33.896Z,74.9
2018-05-11T09:08:58.500Z,75.8
2018-05-11T09:09:57.824Z,76.1
2018-05-11T09:10:57.148Z,76.5
2018-05-11T09:11:56.364Z,76.2
2018-05-11T09:12:55.687Z,75.9
2018-05-11T09:13:54.905Z,76.2
2018-05-11T09:14:53.840Z,77
2018-05-11T09:15:53.270Z,75.5
2018-05-11T09:16:52.592Z,75.3
2018-05-11T09:17:51.919Z,75.8
2018-05-11T09:18:51.242Z,76
2018-05-11T09:19:50.573Z,75.3
2018-05-11T09:20:49.675Z,75.5
2018-05-11T09:21:48.896Z,75.5
2018-05-11T09:22:48.117Z,75
2018-05-11T09:23:47.225Z,75.2
2018-05-11T09:24:46.556Z,76.1
2018-05-11T09:25:17.202Z,76.1
2018-05-11T09:25:47.731Z,75.1
2018-05-11T09:26:18.253Z,75.1
2018-05-11T09:27:44.646Z,74.7
2018-05-11T09:28:43.419Z,74.6
2018-05-11T09:30:42.134Z,74.3
2018-05-11T09:31:41.432Z,74.7
2018-05-11T09:32:40.752Z,74.5
2018-05-11T09:33:40.178Z,75.2
2018-05-11T09:34:39.513Z,76.3
2018-05-11T09:35:38.225Z,74.7
2018-05-11T09:36:08.863Z,74.7
2018-05-11T09:37:36.880Z,74
2018-05-11T09:38:07.024Z,74
2018-05-11T09:38:37.442Z,74.1
2018-05-11T09:39:35.796Z,74
2018-05-11T09:41:34.239Z,73.9
2018-05-11T09:42:33.529Z,73
2018-05-11T09:43:32.576Z,73.7
2018-05-11T09:44:31.796Z,72.9
2018-05-11T09:45:31.025Z,73.4
2018-05-11T09:46:30.347Z,73.8
2018-05-11T09:47:00.982Z,73.8
2018-05-11T09:47:31.110Z,74
2018-05-11T09:48:01.531Z,74
2018-05-11T09:48:31.840Z,73.9
2018-05-11T09:49:01.978Z,73.9
2018-05-11T09:49:32.847Z,72.9
2018-05-11T09:50:27.795Z,73.2
2018-05-11T09:51:26.715Z,73.3
2018-05-11T09:52:25.933Z,74.1
2018-05-11T09:53:25.647Z,73.6
2018-05-11T09:54:24.466Z,73.3
2018-05-11T09:55:24.202Z,73.1
2018-05-11T09:56:23.022Z,72.8
2018-05-11T09:57:22.367Z,72.9
2018-05-11T09:58:21.584Z,73.3
2018-05-11T09:59:21.082Z,73.8
2018-05-11T10:00:20.199Z,73
2018-05-11T10:01:19.515Z,73.1
2018-05-11T10:02:18.740Z,72.8
2018-05-11T10:03:18.057Z,72.2
2018-05-11T10:04:17.489Z,72.2
2018-05-11T10:05:16.705Z,71.1
2018-05-11T10:06:15.926Z,72.2
2018-05-11T10:07:15.160Z,71.8
2018-05-11T10:07:45.498Z,71.8
2018-05-11T10:08:15.813Z,71.4
2018-05-11T10:09:13.613Z,72.3
2018-05-11T10:10:13.365Z,72.2
2018-05-11T10:11:12.074Z,72.2
2018-05-11T10:12:11.512Z,71.7
2018-05-11T10:13:10.730Z,71.5
2018-05-11T10:14:10.170Z,71.4
2018-05-11T10:15:09.570Z,72.1
2018-05-11T10:16:08.907Z,72.1
2018-05-11T10:17:08.375Z,72.7
2018-05-11T10:18:07.204Z,71.6
2018-05-11T10:19:06.819Z,72.5
2018-05-11T10:20:06.153Z,71.5
2018-05-11T10:21:05.167Z,72.3
2018-05-11T10:23:03.781Z,71.5
2018-05-11T10:24:02.901Z,71.2
2018-05-11T10:25:02.519Z,71.4
2018-05-11T10:26:01.861Z,71.8
2018-05-11T10:27:00.763Z,71.7
2018-05-11T10:28:00.486Z,72.5
2018-05-11T10:28:59.343Z,71.7
2018-05-11T10:29:59.030Z,72
2018-05-11T10:30:58.132Z,72.3
2018-05-11T10:31:57.245Z,71.3
2018-05-11T10:32:56.574Z,71.4
2018-05-11T10:33:26.812Z,71.4
2018-05-11T10:33:57.061Z,71.7
2018-05-11T10:35:54.658Z,71.1
2018-05-11T10:36:53.879Z,71
2018-05-11T10:37:53.099Z,71.9
2018-05-11T10:38:52.424Z,72
2018-05-11T10:39:51.962Z,70.6
2018-05-11T10:40:50.778Z,69.9
2018-05-11T10:41:50.514Z,69.9
2018-05-11T10:42:49.739Z,70.2
2018-05-11T10:43:19.982Z,70.2
2018-05-11T10:43:50.613Z,69.4
2018-05-11T10:44:20.771Z,69.4
2018-05-11T10:44:51.406Z,69.4
2018-05-11T10:45:47.318Z,69.7
2018-05-11T10:46:46.645Z,69.8
2018-05-11T10:48:45.473Z,70.2
2018-05-11T10:49:44.530Z,69.3
2018-05-11T10:50:43.961Z,69.7
2018-05-11T10:52:42.708Z,69.9
2018-05-11T10:53:41.921Z,69.8
2018-05-11T10:55:40.519Z,69.7
2018-05-11T10:56:39.846Z,70.3
2018-05-11T10:57:39.060Z,70.5
2018-05-11T10:58:38.165Z,69.7
2018-05-11T10:59:37.391Z,69.7
2018-05-11T11:00:36.609Z,69.9
2018-05-11T11:01:36.331Z,70.6
2018-05-11T11:02:35.780Z,70.6
2018-05-11T11:03:06.425Z,70.6
2018-05-11T11:04:33.938Z,67.6
2018-05-11T11:05:33.662Z,68.8
2018-05-11T11:06:32.898Z,68.8
2018-05-11T11:08:31.507Z,67.7
2018-05-11T11:09:30.826Z,66.8
2018-05-11T11:10:30.046Z,66.2
2018-05-11T11:11:29.185Z,66.3
2018-05-11T11:12:28.514Z,65.7
2018-05-11T11:13:27.795Z,67.1
2018-05-11T11:13:58.093Z,67.1
2018-05-11T11:14:28.731Z,67.3
2018-05-11T11:14:58.973Z,67.3
2018-05-11T11:15:29.601Z,68.4
2018-05-11T11:15:59.842Z,68.4
2018-05-11T11:17:25.337Z,67.9
2018-05-11T11:18:24.555Z,67.1
2018-05-11T11:19:23.812Z,67.8
2018-05-11T11:20:23.237Z,68.8
2018-05-11T11:21:22.677Z,68.1
2018-05-11T11:22:21.788Z,68.8
2018-05-11T11:23:21.013Z,67.9
2018-05-11T11:24:20.332Z,67
2018-05-11T11:24:50.861Z,67
2018-05-11T11:25:21.588Z,66.7
2018-05-11T11:25:52.274Z,66.7
2018-05-11T11:26:22.669Z,66.3
2018-05-11T11:26:53.089Z,66.3
2018-05-11T11:28:17.590Z,65.4
2018-05-11T11:29:16.917Z,65
2018-05-11T11:30:16.019Z,64.5
2018-05-11T11:32:15.238Z,65.5
2018-05-11T11:33:14.348Z,63.1
2018-05-11T11:34:13.733Z,65.9
2018-05-11T11:35:13.193Z,68.6
2018-05-11T11:36:12.027Z,64.8
2018-05-11T11:37:11.460Z,67
2018-05-11T11:38:10.784Z,63.4
2018-05-11T11:39:10.218Z,62.1
2018-05-11T11:40:09.834Z,64.1
2018-05-11T11:41:09.281Z,64
2018-05-11T11:42:08.645Z,62.6
2018-05-11T11:43:07.770Z,63.3
2018-05-11T11:44:07.093Z,64.8
2018-05-11T11:45:06.424Z,67
2018-05-11T11:46:05.857Z,62.2
2018-05-11T11:48:04.674Z,63.3
2018-05-11T11:49:04.026Z,61.9
2018-05-11T11:50:02.964Z,64.7
2018-05-11T11:51:02.303Z,66.3
2018-05-11T11:52:01.648Z,66.1
2018-05-11T11:53:01.151Z,66.1
2018-05-11T11:54:00.594Z,65.5
2018-05-11T11:55:59.490Z,66.2
2018-05-11T11:56:58.326Z,67.1
2018-05-11T11:57:28.634Z,67.1
2018-05-11T11:57:59.270Z,65.3
2018-05-11T11:58:29.841Z,65.3
2018-05-11T11:59:56.846Z,66.3
2018-05-11T12:00:56.204Z,63.4
2018-05-11T12:01:55.480Z,65.4
2018-05-11T12:02:54.634Z,66.9
2018-05-11T12:03:53.891Z,64.8
2018-05-11T12:04:53.226Z,65.4
2018-05-11T12:05:52.546Z,64.2
2018-05-11T12:06:51.860Z,63.1
2018-05-11T12:07:51.185Z,62.8
2018-05-11T12:08:51.138Z,65.6
2018-05-11T12:09:50.127Z,62.5
2018-05-11T12:10:49.451Z,64.1
2018-05-11T12:11:48.801Z,64.4
2018-05-11T12:14:46.906Z,60.6
2018-05-11T12:15:46.381Z,61.2
2018-05-11T12:16:45.555Z,58.6
2018-05-11T12:18:44.274Z,58.1
2018-05-11T12:19:43.715Z,57.3
2018-05-11T12:20:42.941Z,57.9
2018-05-11T12:21:42.260Z,59.7
2018-05-11T12:22:41.976Z,61.4
2018-05-11T12:23:41.403Z,57.5
2018-05-11T12:24:40.512Z,57.9
2018-05-11T12:25:39.851Z,56.6
2018-05-11T12:26:39.585Z,58.2
2018-05-11T12:27:38.916Z,59.2
2018-05-11T12:28:38.252Z,59.2
2018-05-11T12:30:36.833Z,57
2018-05-11T12:31:36.552Z,58.1
2018-05-11T12:32:35.869Z,58.6
2018-05-11T12:33:35.272Z,59.9
2018-05-11T12:34:34.591Z,60.1
2018-05-11T12:36:33.302Z,60.7
2018-05-11T12:37:32.516Z,61.1
2018-05-11T12:38:32.033Z,61.8
2018-05-11T12:39:31.356Z,63.5
2018-05-11T12:40:30.706Z,61.9
2018-05-11T12:41:29.923Z,61.8
2018-05-11T12:42:29.350Z,61.4
2018-05-11T12:43:28.682Z,61.5
2018-05-11T12:44:28.123Z,61.4
2018-05-11T12:45:27.562Z,60.7
2018-05-11T12:46:27.284Z,61.1
2018-05-11T12:47:26.125Z,62.7
2018-05-11T12:48:25.566Z,60.2
2018-05-11T12:49:25.398Z,59.9
2018-05-11T12:50:24.625Z,62.2
2018-05-11T12:51:24.073Z,60.4
2018-05-11T12:52:23.289Z,62.2
2018-05-11T12:53:22.504Z,58.4
2018-05-11T12:54:22.332Z,56
2018-05-11T12:55:21.665Z,56.4
2018-05-11T12:57:20.490Z,57.3
2018-05-11T12:58:19.811Z,59.4
2018-05-11T12:59:19.030Z,56.2
2018-05-11T13:00:18.256Z,54.2
2018-05-11T13:01:17.657Z,51.3
2018-05-11T13:02:17.486Z,51.6
2018-05-11T13:03:16.807Z,54
2018-05-11T13:04:15.923Z,52.5
2018-05-11T13:05:15.748Z,51.8